Terminal Aerodrome Forecast
Issued by NWS

Home | Current Version | Previous Version | Text Only | Print | Product List | Glossary On
Versions: 1 2 3 4 5 6 7 8 9 10 11 12 13 14 15 16 17 18 19 20
000
FTUS46 KMFR 291700
TAFOTH
TAF
KOTH 291738Z 2918/3018 34007KT P6SM BKN012
     FM292100 32012KT P6SM BKN015
     FM300300 34007KT P6SM OVC007
     FM300900 16003KT 3SM -DZ BR OVC003=

USA.gov is the U.S. government's official web portal to all federal, state and local government web resources and services.